sensor_id;sensor_type;location;lat;lon;timestamp;temperature;humidity
71096;DHT22;58753;49.440;11.126;2022-11-23T00:01:27;4.72;91.85
71096;DHT22;58753;49.440;11.126;2022-11-23T00:03:57;4.69;92.26
71096;DHT22;58753;49.440;11.126;2022-11-23T00:06:23;4.67;91.96
71096;DHT22;58753;49.440;11.126;2022-11-23T00:08:50;4.68;92.05
71096;DHT22;58753;49.440;11.126;2022-11-23T00:11:16;4.67;92.08
71096;DHT22;58753;49.440;11.126;2022-11-23T00:13:42;4.62;92.51
71096;DHT22;58753;49.440;11.126;2022-11-23T00:16:10;4.62;91.86
71096;DHT22;58753;49.440;11.126;2022-11-23T00:18:36;4.57;92.41
71096;DHT22;58753;49.440;11.126;2022-11-23T00:21:09;4.54;92.48
71096;DHT22;58753;49.440;11.126;2022-11-23T00:23:35;4.47;92.86
71096;DHT22;58753;49.440;11.126;2022-11-23T00:26:01;4.40;93.12
71096;DHT22;58753;49.440;11.126;2022-11-23T00:28:27;4.33;93.38
71096;DHT22;58753;49.440;11.126;2022-11-23T00:30:52;4.24;93.47
71096;DHT22;58753;49.440;11.126;2022-11-23T00:33:18;4.13;93.59
71096;DHT22;58753;49.440;11.126;2022-11-23T00:35:43;4.06;93.78
71096;DHT22;58753;49.440;11.126;2022-11-23T00:38:09;3.99;93.98
71096;DHT22;58753;49.440;11.126;2022-11-23T00:40:34;3.94;94.12
71096;DHT22;58753;49.440;11.126;2022-11-23T00:43:00;3.85;94.18
71096;DHT22;58753;49.440;11.126;2022-11-23T00:45:25;3.83;94.19
71096;DHT22;58753;49.440;11.126;2022-11-23T00:47:51;3.79;93.87
71096;DHT22;58753;49.440;11.126;2022-11-23T00:50:16;3.73;94.27
71096;DHT22;58753;49.440;11.126;2022-11-23T00:52:41;3.68;94.51
71096;DHT22;58753;49.440;11.126;2022-11-23T00:55:07;3.60;94.45
71096;DHT22;58753;49.440;11.126;2022-11-23T00:57:33;3.55;94.76
71096;DHT22;58753;49.440;11.126;2022-11-23T00:59:58;3.46;94.59
71096;DHT22;58753;49.440;11.126;2022-11-23T01:02:24;3.40;94.88
71096;DHT22;58753;49.440;11.126;2022-11-23T01:04:49;3.32;95.06
71096;DHT22;58753;49.440;11.126;2022-11-23T01:07:14;3.29;95.12
71096;DHT22;58753;49.440;11.126;2022-11-23T01:09:40;3.27;94.97
71096;DHT22;58753;49.440;11.126;2022-11-23T01:12:05;3.28;94.97
71096;DHT22;58753;49.440;11.126;2022-11-23T01:14:30;3.25;94.96
71096;DHT22;58753;49.440;11.126;2022-11-23T01:16:56;3.21;94.96
71096;DHT22;58753;49.440;11.126;2022-11-23T01:19:21;3.12;95.26
71096;DHT22;58753;49.440;11.126;2022-11-23T01:21:47;3.09;95.23
71096;DHT22;58753;49.440;11.126;2022-11-23T01:24:22;3.11;95.20
71096;DHT22;58753;49.440;11.126;2022-11-23T01:26:51;3.07;95.47
71096;DHT22;58753;49.440;11.126;2022-11-23T01:29:17;3.04;95.31
71096;DHT22;58753;49.440;11.126;2022-11-23T01:31:42;3.05;95.19
71096;DHT22;58753;49.440;11.126;2022-11-23T01:34:11;2.97;95.52
71096;DHT22;58753;49.440;11.126;2022-11-23T01:36:37;2.95;95.19
71096;DHT22;58753;49.440;11.126;2022-11-23T01:39:03;2.95;95.08
71096;DHT22;58753;49.440;11.126;2022-11-23T01:41:31;2.88;95.25
71096;DHT22;58753;49.440;11.126;2022-11-23T01:43:57;2.76;95.28
71096;DHT22;58753;49.440;11.126;2022-11-23T01:46:22;2.76;95.23
71096;DHT22;58753;49.440;11.126;2022-11-23T01:48:54;2.72;95.39
71096;DHT22;58753;49.440;11.126;2022-11-23T01:51:25;2.63;95.54
71096;DHT22;58753;49.440;11.126;2022-11-23T01:53:53;2.54;95.53
71096;DHT22;58753;49.440;11.126;2022-11-23T01:56:27;2.50;95.38
71096;DHT22;58753;49.440;11.126;2022-11-23T01:58:55;2.47;95.43
71096;DHT22;58753;49.440;11.126;2022-11-23T02:01:22;2.42;95.28
71096;DHT22;58753;49.440;11.126;2022-11-23T02:03:48;2.37;95.19
71096;DHT22;58753;49.440;11.126;2022-11-23T02:06:18;2.32;95.46
71096;DHT22;58753;49.440;11.126;2022-11-23T02:08:45;2.21;95.55
71096;DHT22;58753;49.440;11.126;2022-11-23T02:11:12;2.18;95.80
71096;DHT22;58753;49.440;11.126;2022-11-23T02:13:38;2.11;95.93
71096;DHT22;58753;49.440;11.126;2022-11-23T02:16:04;2.15;95.97
71096;DHT22;58753;49.440;11.126;2022-11-23T02:18:31;2.16;95.59
71096;DHT22;58753;49.440;11.126;2022-11-23T02:20:59;2.12;95.69
71096;DHT22;58753;49.440;11.126;2022-11-23T02:25:58;2.11;95.68
71096;DHT22;58753;49.440;11.126;2022-11-23T02:28:28;2.05;95.81
71096;DHT22;58753;49.440;11.126;2022-11-23T02:30:54;2.08;95.70
71096;DHT22;58753;49.440;11.126;2022-11-23T02:33:20;2.09;95.85
71096;DHT22;58753;49.440;11.126;2022-11-23T02:35:50;2.13;95.72
71096;DHT22;58753;49.440;11.126;2022-11-23T02:38:17;2.15;95.74
71096;DHT22;58753;49.440;11.126;2022-11-23T02:40:43;2.18;96.05
71096;DHT22;58753;49.440;11.126;2022-11-23T02:43:09;2.12;95.62
71096;DHT22;58753;49.440;11.126;2022-11-23T02:45:42;2.21;95.77
71096;DHT22;58753;49.440;11.126;2022-11-23T02:48:10;2.18;95.53
71096;DHT22;58753;49.440;11.126;2022-11-23T02:50:36;2.22;95.82
71096;DHT22;58753;49.440;11.126;2022-11-23T02:53:01;2.19;95.75
71096;DHT22;58753;49.440;11.126;2022-11-23T02:55:27;2.23;95.82
71096;DHT22;58753;49.440;11.126;2022-11-23T02:57:52;2.22;95.44
71096;DHT22;58753;49.440;11.126;2022-11-23T03:00:18;2.12;95.58
71096;DHT22;58753;49.440;11.126;2022-11-23T03:02:43;2.08;95.66
71096;DHT22;58753;49.440;11.126;2022-11-23T03:05:09;2.05;95.88
71096;DHT22;58753;49.440;11.126;2022-11-23T03:07:34;2.05;95.91
71096;DHT22;58753;49.440;11.126;2022-11-23T03:10:00;2.05;96.02
71096;DHT22;58753;49.440;11.126;2022-11-23T03:12:25;2.08;96.02
71096;DHT22;58753;49.440;11.126;2022-11-23T03:14:51;2.08;95.98
71096;DHT22;58753;49.440;11.126;2022-11-23T03:17:16;2.08;96.12
71096;DHT22;58753;49.440;11.126;2022-11-23T03:19:41;2.12;96.24
71096;DHT22;58753;49.440;11.126;2022-11-23T03:22:07;2.21;96.18
71096;DHT22;58753;49.440;11.126;2022-11-23T03:24:32;2.19;96.24
71096;DHT22;58753;49.440;11.126;2022-11-23T03:26:58;2.22;96.36
71096;DHT22;58753;49.440;11.126;2022-11-23T03:29:23;2.23;96.40
71096;DHT22;58753;49.440;11.126;2022-11-23T03:31:51;2.21;96.17
71096;DHT22;58753;49.440;11.126;2022-11-23T03:34:17;2.19;96.35
71096;DHT22;58753;49.440;11.126;2022-11-23T03:36:42;2.18;96.21
71096;DHT22;58753;49.440;11.126;2022-11-23T03:39:07;2.06;95.90
71096;DHT22;58753;49.440;11.126;2022-11-23T03:41:33;2.12;96.35
71096;DHT22;58753;49.440;11.126;2022-11-23T03:43:58;2.12;96.21
71096;DHT22;58753;49.440;11.126;2022-11-23T03:46:24;2.06;96.40
71096;DHT22;58753;49.440;11.126;2022-11-23T03:48:49;2.12;96.22
71096;DHT22;58753;49.440;11.126;2022-11-23T03:51:14;2.03;96.26
71096;DHT22;58753;49.440;11.126;2022-11-23T03:53:40;2.01;96.29
71096;DHT22;58753;49.440;11.126;2022-11-23T03:56:05;2.01;96.11
71096;DHT22;58753;49.440;11.126;2022-11-23T03:58:31;2.05;96.09
71096;DHT22;58753;49.440;11.126;2022-11-23T04:00:56;2.05;96.12
71096;DHT22;58753;49.440;11.126;2022-11-23T04:03:21;2.06;96.23
71096;DHT22;58753;49.440;11.126;2022-11-23T04:05:47;2.08;96.26
71096;DHT22;58753;49.440;11.126;2022-11-23T04:08:12;2.05;96.18
71096;DHT22;58753;49.440;11.126;2022-11-23T04:10:37;2.02;96.33
71096;DHT22;58753;49.440;11.126;2022-11-23T04:13:03;2.02;96.20
71096;DHT22;58753;49.440;11.126;2022-11-23T04:15:28;2.03;96.44
71096;DHT22;58753;49.440;11.126;2022-11-23T04:17:54;2.01;96.40
71096;DHT22;58753;49.440;11.126;2022-11-23T04:20:20;1.91;96.59
71096;DHT22;58753;49.440;11.126;2022-11-23T04:22:45;1.89;96.37
71096;DHT22;58753;49.440;11.126;2022-11-23T04:25:10;1.83;96.72
71096;DHT22;58753;49.440;11.126;2022-11-23T04:27:36;1.78;96.38
71096;DHT22;58753;49.440;11.126;2022-11-23T04:30:01;1.79;96.49
71096;DHT22;58753;49.440;11.126;2022-11-23T04:32:26;1.79;96.67
71096;DHT22;58753;49.440;11.126;2022-11-23T04:34:52;1.83;96.63
71096;DHT22;58753;49.440;11.126;2022-11-23T04:37:17;1.85;96.34
71096;DHT22;58753;49.440;11.126;2022-11-23T04:39:42;1.86;96.51
71096;DHT22;58753;49.440;11.126;2022-11-23T04:42:10;1.89;96.38
71096;DHT22;58753;49.440;11.126;2022-11-23T04:44:36;1.95;96.43
71096;DHT22;58753;49.440;11.126;2022-11-23T04:47:01;1.97;96.30
71096;DHT22;58753;49.440;11.126;2022-11-23T04:49:26;1.99;96.24
71096;DHT22;58753;49.440;11.126;2022-11-23T04:51:52;1.99;96.24
71096;DHT22;58753;49.440;11.126;2022-11-23T04:54:17;1.99;96.38
71096;DHT22;58753;49.440;11.126;2022-11-23T04:56:42;1.98;96.40
71096;DHT22;58753;49.440;11.126;2022-11-23T04:59:08;2.03;96.63
71096;DHT22;58753;49.440;11.126;2022-11-23T05:01:33;2.03;96.33
71096;DHT22;58753;49.440;11.126;2022-11-23T05:03:59;2.05;96.35
71096;DHT22;58753;49.440;11.126;2022-11-23T05:06:24;2.05;96.27
71096;DHT22;58753;49.440;11.126;2022-11-23T05:08:50;2.12;96.37
71096;DHT22;58753;49.440;11.126;2022-11-23T05:11:15;2.12;96.53
71096;DHT22;58753;49.440;11.126;2022-11-23T05:13:41;2.18;96.46
71096;DHT22;58753;49.440;11.126;2022-11-23T05:16:06;2.28;96.37
71096;DHT22;58753;49.440;11.126;2022-11-23T05:18:31;2.32;96.00
71096;DHT22;58753;49.440;11.126;2022-11-23T05:20:57;2.32;96.34
71096;DHT22;58753;49.440;11.126;2022-11-23T05:23:22;2.36;96.48
71096;DHT22;58753;49.440;11.126;2022-11-23T05:25:47;2.39;96.48
71096;DHT22;58753;49.440;11.126;2022-11-23T05:28:18;2.46;96.58
71096;DHT22;58753;49.440;11.126;2022-11-23T05:30:44;2.47;96.80
71096;DHT22;58753;49.440;11.126;2022-11-23T05:33:09;2.54;96.86
71096;DHT22;58753;49.440;11.126;2022-11-23T05:35:35;2.53;96.64
71096;DHT22;58753;49.440;11.126;2022-11-23T05:38:00;2.53;96.56
71096;DHT22;58753;49.440;11.126;2022-11-23T05:40:26;2.57;96.62
71096;DHT22;58753;49.440;11.126;2022-11-23T05:42:55;2.57;96.49
71096;DHT22;58753;49.440;11.126;2022-11-23T05:45:21;2.60;96.41
71096;DHT22;58753;49.440;11.126;2022-11-23T05:47:51;2.63;96.67
71096;DHT22;58753;49.440;11.126;2022-11-23T05:50:18;2.56;96.54
71096;DHT22;58753;49.440;11.126;2022-11-23T05:52:44;2.58;96.56
71096;DHT22;58753;49.440;11.126;2022-11-23T05:55:09;2.64;96.49
71096;DHT22;58753;49.440;11.126;2022-11-23T05:57:35;2.58;96.34
71096;DHT22;58753;49.440;11.126;2022-11-23T06:00:01;2.52;96.40
71096;DHT22;58753;49.440;11.126;2022-11-23T06:02:26;2.56;96.54
71096;DHT22;58753;49.440;11.126;2022-11-23T06:04:52;2.60;96.48
71096;DHT22;58753;49.440;11.126;2022-11-23T06:07:17;2.64;96.82
71096;DHT22;58753;49.440;11.126;2022-11-23T06:09:42;2.67;96.69
71096;DHT22;58753;49.440;11.126;2022-11-23T06:12:08;2.70;96.81
71096;DHT22;58753;49.440;11.126;2022-11-23T06:14:33;2.73;96.78
71096;DHT22;58753;49.440;11.126;2022-11-23T06:16:59;2.76;96.63
71096;DHT22;58753;49.440;11.126;2022-11-23T06:19:24;2.81;96.37
71096;DHT22;58753;49.440;11.126;2022-11-23T06:21:49;2.83;96.44
71096;DHT22;58753;49.440;11.126;2022-11-23T06:24:15;2.85;96.43
71096;DHT22;58753;49.440;11.126;2022-11-23T06:26:40;2.87;96.64
71096;DHT22;58753;49.440;11.126;2022-11-23T06:29:05;2.93;96.92
71096;DHT22;58753;49.440;11.126;2022-11-23T06:31:31;2.93;96.59
71096;DHT22;58753;49.440;11.126;2022-11-23T06:33:56;3.03;96.83
71096;DHT22;58753;49.440;11.126;2022-11-23T06:36:21;3.08;96.31
71096;DHT22;58753;49.440;11.126;2022-11-23T06:38:47;3.12;96.08
71096;DHT22;58753;49.440;11.126;2022-11-23T06:41:12;3.18;94.83
71096;DHT22;58753;49.440;11.126;2022-11-23T06:43:38;3.17;95.35
71096;DHT22;58753;49.440;11.126;2022-11-23T06:46:04;3.19;95.75
71096;DHT22;58753;49.440;11.126;2022-11-23T06:48:30;3.18;96.13
71096;DHT22;58753;49.440;11.126;2022-11-23T06:50:59;3.21;95.77
71096;DHT22;58753;49.440;11.126;2022-11-23T06:53:27;3.29;94.33
71096;DHT22;58753;49.440;11.126;2022-11-23T06:55:57;3.40;93.84
71096;DHT22;58753;49.440;11.126;2022-11-23T06:58:22;3.43;93.73
71096;DHT22;58753;49.440;11.126;2022-11-23T07:00:47;3.49;93.59
71096;DHT22;58753;49.440;11.126;2022-11-23T07:03:21;3.48;94.69
71096;DHT22;58753;49.440;11.126;2022-11-23T07:05:46;3.43;94.66
71096;DHT22;58753;49.440;11.126;2022-11-23T07:08:12;3.43;95.23
71096;DHT22;58753;49.440;11.126;2022-11-23T07:10:37;3.46;95.21
71096;DHT22;58753;49.440;11.126;2022-11-23T07:13:04;3.48;95.10
71096;DHT22;58753;49.440;11.126;2022-11-23T07:15:30;3.45;95.57
71096;DHT22;58753;49.440;11.126;2022-11-23T07:17:55;3.54;95.29
71096;DHT22;58753;49.440;11.126;2022-11-23T07:20:21;3.59;94.27
71096;DHT22;58753;49.440;11.126;2022-11-23T07:22:46;3.60;94.92
71096;DHT22;58753;49.440;11.126;2022-11-23T07:25:12;3.60;94.78
71096;DHT22;58753;49.440;11.126;2022-11-23T07:27:42;3.60;95.00
71096;DHT22;58753;49.440;11.126;2022-11-23T07:30:08;3.62;95.33
71096;DHT22;58753;49.440;11.126;2022-11-23T07:32:34;3.65;95.00
71096;DHT22;58753;49.440;11.126;2022-11-23T07:34:59;3.65;95.19
71096;DHT22;58753;49.440;11.126;2022-11-23T07:37:25;3.68;95.17
71096;DHT22;58753;49.440;11.126;2022-11-23T07:39:50;3.68;95.20
71096;DHT22;58753;49.440;11.126;2022-11-23T07:42:17;3.69;95.10
71096;DHT22;58753;49.440;11.126;2022-11-23T07:44:43;3.75;94.94
71096;DHT22;58753;49.440;11.126;2022-11-23T07:47:08;3.78;94.72
71096;DHT22;58753;49.440;11.126;2022-11-23T07:49:34;3.82;94.17
71096;DHT22;58753;49.440;11.126;2022-11-23T07:51:59;3.85;94.01
71096;DHT22;58753;49.440;11.126;2022-11-23T07:54:24;3.90;93.94
71096;DHT22;58753;49.440;11.126;2022-11-23T07:56:50;3.92;93.75
71096;DHT22;58753;49.440;11.126;2022-11-23T07:59:15;4.00;92.80
71096;DHT22;58753;49.440;11.126;2022-11-23T08:01:41;4.04;93.14
71096;DHT22;58753;49.440;11.126;2022-11-23T08:04:06;4.11;93.02
71096;DHT22;58753;49.440;11.126;2022-11-23T08:06:31;4.11;92.50
71096;DHT22;58753;49.440;11.126;2022-11-23T08:08:57;4.13;92.96
71096;DHT22;58753;49.440;11.126;2022-11-23T08:11:23;4.16;93.15
71096;DHT22;58753;49.440;11.126;2022-11-23T08:13:49;4.20;92.97
71096;DHT22;58753;49.440;11.126;2022-11-23T08:16:14;4.24;92.50
71096;DHT22;58753;49.440;11.126;2022-11-23T08:18:40;4.29;92.35
71096;DHT22;58753;49.440;11.126;2022-11-23T08:21:05;4.33;92.95
71096;DHT22;58753;49.440;11.126;2022-11-23T08:23:30;4.33;92.04
71096;DHT22;58753;49.440;11.126;2022-11-23T08:25:56;4.37;91.36
71096;DHT22;58753;49.440;11.126;2022-11-23T08:28:21;4.44;92.15
71096;DHT22;58753;49.440;11.126;2022-11-23T08:30:47;4.45;92.25
71096;DHT22;58753;49.440;11.126;2022-11-23T08:33:13;4.48;91.96
71096;DHT22;58753;49.440;11.126;2022-11-23T08:35:40;4.53;91.89
71096;DHT22;58753;49.440;11.126;2022-11-23T08:38:07;4.51;92.27
71096;DHT22;58753;49.440;11.126;2022-11-23T08:40:33;4.60;92.03
71096;DHT22;58753;49.440;11.126;2022-11-23T08:42:58;4.60;91.18
71096;DHT22;58753;49.440;11.126;2022-11-23T08:45:24;4.62;90.62
71096;DHT22;58753;49.440;11.126;2022-11-23T08:47:50;4.69;91.71
71096;DHT22;58753;49.440;11.126;2022-11-23T08:50:16;4.75;91.13
71096;DHT22;58753;49.440;11.126;2022-11-23T08:52:42;4.78;89.37
71096;DHT22;58753;49.440;11.126;2022-11-23T08:55:07;4.81;89.74
71096;DHT22;58753;49.440;11.126;2022-11-23T08:57:33;4.88;89.76
71096;DHT22;58753;49.440;11.126;2022-11-23T08:59:58;4.85;90.19
71096;DHT22;58753;49.440;11.126;2022-11-23T09:02:24;4.93;89.81
71096;DHT22;58753;49.440;11.126;2022-11-23T09:04:49;4.95;89.27
71096;DHT22;58753;49.440;11.126;2022-11-23T09:07:14;5.02;89.06
71096;DHT22;58753;49.440;11.126;2022-11-23T09:09:40;5.04;90.21
71096;DHT22;58753;49.440;11.126;2022-11-23T09:12:05;5.11;89.49
71096;DHT22;58753;49.440;11.126;2022-11-23T09:14:31;5.11;89.33
71096;DHT22;58753;49.440;11.126;2022-11-23T09:16:59;5.25;89.11
71096;DHT22;58753;49.440;11.126;2022-11-23T09:19:25;5.32;89.52
71096;DHT22;58753;49.440;11.126;2022-11-23T09:21:50;5.37;89.00
71096;DHT22;58753;49.440;11.126;2022-11-23T09:24:16;5.46;87.84
71096;DHT22;58753;49.440;11.126;2022-11-23T09:26:41;5.53;88.49
71096;DHT22;58753;49.440;11.126;2022-11-23T09:29:07;5.64;88.11
71096;DHT22;58753;49.440;11.126;2022-11-23T09:31:34;5.75;88.80
71096;DHT22;58753;49.440;11.126;2022-11-23T09:33:59;5.84;87.98
71096;DHT22;58753;49.440;11.126;2022-11-23T09:36:25;5.95;87.27
71096;DHT22;58753;49.440;11.126;2022-11-23T09:38:50;5.94;87.01
71096;DHT22;58753;49.440;11.126;2022-11-23T09:50:02;6.31;85.49
71096;DHT22;58753;49.440;11.126;2022-11-23T09:52:33;6.34;84.82
71096;DHT22;58753;49.440;11.126;2022-11-23T09:55:09;6.44;84.02
71096;DHT22;58753;49.440;11.126;2022-11-23T09:57:38;6.49;84.27
71096;DHT22;58753;49.440;11.126;2022-11-23T10:00:14;6.53;83.28
71096;DHT22;58753;49.440;11.126;2022-11-23T10:02:40;6.55;84.45
71096;DHT22;58753;49.440;11.126;2022-11-23T10:05:06;6.63;84.74
71096;DHT22;58753;49.440;11.126;2022-11-23T10:08:05;6.77;84.00
71096;DHT22;58753;49.440;11.126;2022-11-23T10:24:17;7.11;79.61
71096;DHT22;58753;49.440;11.126;2022-11-23T10:26:46;7.13;79.29
71096;DHT22;58753;49.440;11.126;2022-11-23T10:31:56;7.07;80.15
71096;DHT22;58753;49.440;11.126;2022-11-23T10:34:30;7.16;80.00
71096;DHT22;58753;49.440;11.126;2022-11-23T10:36:59;7.17;79.69
71096;DHT22;58753;49.440;11.126;2022-11-23T10:39:26;7.18;80.67
71096;DHT22;58753;49.440;11.126;2022-11-23T10:41:53;7.35;79.03
71096;DHT22;58753;49.440;11.126;2022-11-23T10:44:36;7.64;78.30
71096;DHT22;58753;49.440;11.126;2022-11-23T10:47:02;7.75;76.72
71096;DHT22;58753;49.440;11.126;2022-11-23T10:49:30;7.82;76.28
71096;DHT22;58753;49.440;11.126;2022-11-23T10:52:27;7.91;76.50
71096;DHT22;58753;49.440;11.126;2022-11-23T10:54:56;8.01;76.53
71096;DHT22;58753;49.440;11.126;2022-11-23T10:57:41;8.23;75.22
71096;DHT22;58753;49.440;11.126;2022-11-23T11:07:54;8.53;75.98
71096;DHT22;58753;49.440;11.126;2022-11-23T11:10:47;9.05;74.44
71096;DHT22;58753;49.440;11.126;2022-11-23T11:15:57;10.50;70.46
71096;DHT22;58753;49.440;11.126;2022-11-23T11:18:29;10.27;69.32
71096;DHT22;58753;49.440;11.126;2022-11-23T11:20:58;10.20;69.00
71096;DHT22;58753;49.440;11.126;2022-11-23T11:23:24;10.16;66.66
71096;DHT22;58753;49.440;11.126;2022-11-23T11:26:22;10.37;66.98
71096;DHT22;58753;49.440;11.126;2022-11-23T11:28:48;10.25;64.44
71096;DHT22;58753;49.440;11.126;2022-11-23T11:33:52;11.08;63.45
71096;DHT22;58753;49.440;11.126;2022-11-23T11:36:20;11.50;62.44
71096;DHT22;58753;49.440;11.126;2022-11-23T11:38:49;11.33;61.69
71096;DHT22;58753;49.440;11.126;2022-11-23T11:41:18;11.52;61.70
71096;DHT22;58753;49.440;11.126;2022-11-23T11:43:52;11.84;62.58
71096;DHT22;58753;49.440;11.126;2022-11-23T11:46:31;11.84;60.57
71096;DHT22;58753;49.440;11.126;2022-11-23T11:49:07;11.79;60.77
71096;DHT22;58753;49.440;11.126;2022-11-23T11:51:40;11.65;60.62
71096;DHT22;58753;49.440;11.126;2022-11-23T11:56:53;12.13;61.31
71096;DHT22;58753;49.440;11.126;2022-11-23T11:59:28;12.02;59.43
71096;DHT22;58753;49.440;11.126;2022-11-23T12:02:00;11.84;57.99
71096;DHT22;58753;49.440;11.126;2022-11-23T12:04:42;11.46;59.31
71096;DHT22;58753;49.440;11.126;2022-11-23T12:07:17;11.76;61.15
71096;DHT22;58753;49.440;11.126;2022-11-23T12:09:50;11.49;59.50
71096;DHT22;58753;49.440;11.126;2022-11-23T12:12:18;11.50;60.22
71096;DHT22;58753;49.440;11.126;2022-11-23T12:14:45;11.79;58.22
71096;DHT22;58753;49.440;11.126;2022-11-23T12:23:15;11.83;58.75
71096;DHT22;58753;49.440;11.126;2022-11-23T12:25:48;11.84;57.62
71096;DHT22;58753;49.440;11.126;2022-11-23T12:28:38;11.65;57.59
71096;DHT22;58753;49.440;11.126;2022-11-23T12:31:25;11.94;59.09
71096;DHT22;58753;49.440;11.126;2022-11-23T12:34:14;12.08;59.54
71096;DHT22;58753;49.440;11.126;2022-11-23T12:39:59;11.65;56.90
71096;DHT22;58753;49.440;11.126;2022-11-23T12:42:43;11.49;58.30
71096;DHT22;58753;49.440;11.126;2022-11-23T12:45:21;11.66;58.53
71096;DHT22;58753;49.440;11.126;2022-11-23T12:50:59;11.25;58.97
71096;DHT22;58753;49.440;11.126;2022-11-23T12:58:41;10.95;59.38
71096;DHT22;58753;49.440;11.126;2022-11-23T13:01:59;10.98;60.51
71096;DHT22;58753;49.440;11.126;2022-11-23T13:04:25;10.58;62.79
71096;DHT22;58753;49.440;11.126;2022-11-23T13:20:43;9.52;67.54
71096;DHT22;58753;49.440;11.126;2022-11-23T13:23:11;9.62;66.88
71096;DHT22;58753;49.440;11.126;2022-11-23T13:25:36;9.35;68.74
71096;DHT22;58753;49.440;11.126;2022-11-23T13:28:03;9.34;68.53
71096;DHT22;58753;49.440;11.126;2022-11-23T13:30:37;9.24;69.19
71096;DHT22;58753;49.440;11.126;2022-11-23T13:33:26;9.21;68.99
71096;DHT22;58753;49.440;11.126;2022-11-23T13:35:57;9.10;69.02
71096;DHT22;58753;49.440;11.126;2022-11-23T13:38:25;9.04;70.00
71096;DHT22;58753;49.440;11.126;2022-11-23T13:40:51;9.17;68.69
71096;DHT22;58753;49.440;11.126;2022-11-23T13:43:31;9.03;70.03
71096;DHT22;58753;49.440;11.126;2022-11-23T13:46:20;8.94;69.37
71096;DHT22;58753;49.440;11.126;2022-11-23T13:48:49;8.88;68.73
71096;DHT22;58753;49.440;11.126;2022-11-23T13:51:42;8.89;68.82
71096;DHT22;58753;49.440;11.126;2022-11-23T13:54:21;8.88;69.19
71096;DHT22;58753;49.440;11.126;2022-11-23T13:57:00;8.84;69.07
71096;DHT22;58753;49.440;11.126;2022-11-23T13:59:28;8.76;68.94
71096;DHT22;58753;49.440;11.126;2022-11-23T14:04:23;8.49;70.78
71096;DHT22;58753;49.440;11.126;2022-11-23T14:06:53;8.50;71.17
71096;DHT22;58753;49.440;11.126;2022-11-23T14:15:06;8.37;72.56
71096;DHT22;58753;49.440;11.126;2022-11-23T14:32:19;8.26;73.55
71096;DHT22;58753;49.440;11.126;2022-11-23T14:34:49;8.09;74.43
71096;DHT22;58753;49.440;11.126;2022-11-23T14:42:53;7.91;75.64
71096;DHT22;58753;49.440;11.126;2022-11-23T14:45:21;7.70;76.49
71096;DHT22;58753;49.440;11.126;2022-11-23T14:47:47;7.71;76.14
71096;DHT22;58753;49.440;11.126;2022-11-23T14:52:49;7.61;76.81
71096;DHT22;58753;49.440;11.126;2022-11-23T14:55:20;7.48;77.69
71096;DHT22;58753;49.440;11.126;2022-11-23T14:57:47;7.46;77.43
71096;DHT22;58753;49.440;11.126;2022-11-23T15:02:49;7.20;79.07
71096;DHT22;58753;49.440;11.126;2022-11-23T15:12:53;7.04;79.91
71096;DHT22;58753;49.440;11.126;2022-11-23T15:15:27;7.00;79.68
71096;DHT22;58753;49.440;11.126;2022-11-23T15:17:56;6.85;80.83
71096;DHT22;58753;49.440;11.126;2022-11-23T15:20:26;6.72;82.34
71096;DHT22;58753;49.440;11.126;2022-11-23T15:22:52;6.65;81.79
71096;DHT22;58753;49.440;11.126;2022-11-23T15:25:17;6.55;82.70
71096;DHT22;58753;49.440;11.126;2022-11-23T15:27:45;6.50;82.59
71096;DHT22;58753;49.440;11.126;2022-11-23T15:30:18;6.55;82.41
71096;DHT22;58753;49.440;11.126;2022-11-23T15:32:56;6.48;82.53
71096;DHT22;58753;49.440;11.126;2022-11-23T15:35:28;6.28;83.64
71096;DHT22;58753;49.440;11.126;2022-11-23T15:37:54;6.18;84.16
71096;DHT22;58753;49.440;11.126;2022-11-23T15:40:22;6.12;84.14
71096;DHT22;58753;49.440;11.126;2022-11-23T15:42:49;6.08;84.80
71096;DHT22;58753;49.440;11.126;2022-11-23T15:48:21;5.95;84.84
71096;DHT22;58753;49.440;11.126;2022-11-23T15:53:16;5.81;85.59
71096;DHT22;58753;49.440;11.126;2022-11-23T15:55:42;5.75;86.42
71096;DHT22;58753;49.440;11.126;2022-11-23T15:58:08;5.73;85.97
71096;DHT22;58753;49.440;11.126;2022-11-23T16:00:35;5.69;86.08
71096;DHT22;58753;49.440;11.126;2022-11-23T16:08:35;5.54;86.73
71096;DHT22;58753;49.440;11.126;2022-11-23T16:11:01;5.50;86.81
71096;DHT22;58753;49.440;11.126;2022-11-23T16:13:34;5.46;87.21
71096;DHT22;58753;49.440;11.126;2022-11-23T16:16:04;5.43;86.98
71096;DHT22;58753;49.440;11.126;2022-11-23T16:18:33;5.37;87.39
71096;DHT22;58753;49.440;11.126;2022-11-23T16:21:00;5.33;87.22
71096;DHT22;58753;49.440;11.126;2022-11-23T16:23:35;5.36;87.40
71096;DHT22;58753;49.440;11.126;2022-11-23T16:26:05;5.28;87.83
71096;DHT22;58753;49.440;11.126;2022-11-23T16:28:33;5.28;88.30
71096;DHT22;58753;49.440;11.126;2022-11-23T16:30:59;5.19;88.03
71096;DHT22;58753;49.440;11.126;2022-11-23T16:33:25;5.12;88.36
71096;DHT22;58753;49.440;11.126;2022-11-23T16:35:51;5.04;88.95
71096;DHT22;58753;49.440;11.126;2022-11-23T16:38:17;4.98;88.41
71096;DHT22;58753;49.440;11.126;2022-11-23T16:40:43;4.86;88.75
71096;DHT22;58753;49.440;11.126;2022-11-23T16:43:12;4.82;89.14
71096;DHT22;58753;49.440;11.126;2022-11-23T16:45:39;4.81;89.05
71096;DHT22;58753;49.440;11.126;2022-11-23T16:50:52;4.69;89.41
71096;DHT22;58753;49.440;11.126;2022-11-23T16:53:18;4.61;89.73
71096;DHT22;58753;49.440;11.126;2022-11-23T16:55:45;4.61;89.84
71096;DHT22;58753;49.440;11.126;2022-11-23T16:58:13;4.55;90.26
71096;DHT22;58753;49.440;11.126;2022-11-23T17:00:39;4.55;90.42
71096;DHT22;58753;49.440;11.126;2022-11-23T17:03:05;4.45;90.27
71096;DHT22;58753;49.440;11.126;2022-11-23T17:05:30;4.38;90.43
71096;DHT22;58753;49.440;11.126;2022-11-23T17:07:56;4.34;90.58
71096;DHT22;58753;49.440;11.126;2022-11-23T17:10:21;4.29;91.12
71096;DHT22;58753;49.440;11.126;2022-11-23T17:12:51;4.23;90.98
71096;DHT22;58753;49.440;11.126;2022-11-23T17:15:20;4.18;90.95
71096;DHT22;58753;49.440;11.126;2022-11-23T17:17:46;4.17;91.14
71096;DHT22;58753;49.440;11.126;2022-11-23T17:20:12;4.16;91.34
71096;DHT22;58753;49.440;11.126;2022-11-23T17:22:38;4.13;91.31
71096;DHT22;58753;49.440;11.126;2022-11-23T17:25:05;4.02;91.46
71096;DHT22;58753;49.440;11.126;2022-11-23T17:27:33;3.93;91.48
71096;DHT22;58753;49.440;11.126;2022-11-23T17:30:00;3.96;91.76
71096;DHT22;58753;49.440;11.126;2022-11-23T17:32:26;3.90;91.80
71096;DHT22;58753;49.440;11.126;2022-11-23T17:34:52;3.89;91.53
71096;DHT22;58753;49.440;11.126;2022-11-23T17:37:19;3.86;91.96
71096;DHT22;58753;49.440;11.126;2022-11-23T17:39:46;3.83;92.02
71096;DHT22;58753;49.440;11.126;2022-11-23T17:42:12;3.79;92.35
71096;DHT22;58753;49.440;11.126;2022-11-23T17:44:37;3.75;92.17